createdAt,value
2023-05-21T00:02:18.900Z,44.27
2023-05-21T00:04:46.544Z,44.22
2023-05-21T00:07:13.698Z,44.26
2023-05-21T00:09:40.678Z,44.31
2023-05-21T00:12:08.276Z,44.16
2023-05-21T00:14:35.798Z,44.13
2023-05-21T00:17:02.855Z,44.16
2023-05-21T00:19:29.929Z,44.18
2023-05-21T00:21:57.734Z,44.21
2023-05-21T00:24:24.806Z,44.36
2023-05-21T00:26:51.864Z,44.43
2023-05-21T00:29:18.726Z,44.64
2023-05-21T00:31:45.754Z,44.72
2023-05-21T00:34:13.838Z,44.92
2023-05-21T00:36:40.756Z,44.99
2023-05-21T00:39:09.174Z,45.11
2023-05-21T00:41:36.235Z,45.22
2023-05-21T00:44:03.480Z,45.28
2023-05-21T00:46:30.464Z,45.36
2023-05-21T00:48:58.586Z,45.42
2023-05-21T00:51:26.075Z,45.42
2023-05-21T00:53:53.194Z,45.62
2023-05-21T00:56:22.878Z,45.68
2023-05-21T00:58:52.149Z,45.82
2023-05-21T01:01:19.619Z,45.94
2023-05-21T01:03:48.814Z,45.96
2023-05-21T01:06:16.235Z,46.01
2023-05-21T01:08:44.388Z,46.06
2023-05-21T01:11:11.528Z,46.05
2023-05-21T01:13:41.004Z,46.05
2023-05-21T01:16:09.197Z,46.09
2023-05-21T01:18:38.111Z,46.22
2023-05-21T01:21:07.654Z,46.20
2023-05-21T01:23:34.969Z,46.22
2023-05-21T01:26:02.026Z,46.30
2023-05-21T01:28:29.973Z,46.33
2023-05-21T01:30:57.053Z,46.38
2023-05-21T01:33:31.452Z,46.44
2023-05-21T01:36:29.470Z,46.55
2023-05-21T01:39:05.358Z,46.62
2023-05-21T01:41:34.426Z,46.69
2023-05-21T01:44:01.650Z,46.70
2023-05-21T01:46:30.530Z,46.72
2023-05-21T01:48:57.719Z,46.73
2023-05-21T01:51:24.858Z,46.85
2023-05-21T01:53:51.726Z,47.08
2023-05-21T01:56:18.769Z,47.15
2023-05-21T01:58:45.817Z,47.29
2023-05-21T02:01:12.774Z,47.25
2023-05-21T02:03:40.026Z,47.27
2023-05-21T02:06:07.185Z,47.39
2023-05-21T02:08:34.340Z,47.38
2023-05-21T02:11:01.954Z,47.49
2023-05-21T02:13:29.334Z,47.51
2023-05-21T02:15:56.514Z,47.56
2023-05-21T02:18:23.897Z,47.61
2023-05-21T02:20:51.042Z,47.58
2023-05-21T02:23:18.043Z,47.56
2023-05-21T02:25:44.939Z,47.62
2023-05-21T02:28:12.919Z,47.53
2023-05-21T02:30:39.845Z,47.56
2023-05-21T02:33:09.506Z,47.44
2023-05-21T02:35:36.767Z,47.54
2023-05-21T02:38:04.225Z,47.59
2023-05-21T02:40:32.874Z,47.63
2023-05-21T02:42:59.948Z,47.65
2023-05-21T02:45:28.744Z,47.61
2023-05-21T02:47:55.813Z,47.53
2023-05-21T02:50:23.566Z,47.48
2023-05-21T02:52:59.937Z,47.41
2023-05-21T02:55:27.437Z,47.36
2023-05-21T02:57:54.286Z,47.30
2023-05-21T03:00:21.196Z,47.35
2023-05-21T03:02:48.406Z,47.41
2023-05-21T03:05:15.545Z,47.41
2023-05-21T03:07:43.790Z,47.34
2023-05-21T03:10:10.986Z,47.28
2023-05-21T03:12:38.402Z,47.32
2023-05-21T03:15:06.081Z,47.28
2023-05-21T03:17:33.400Z,47.21
2023-05-21T03:20:01.105Z,47.21
2023-05-21T03:22:28.356Z,47.20
2023-05-21T03:24:55.225Z,47.31
2023-05-21T03:27:22.267Z,47.32
2023-05-21T03:29:50.202Z,47.36
2023-05-21T03:32:17.444Z,47.34
2023-05-21T03:34:45.235Z,47.30
2023-05-21T03:37:12.360Z,47.19
2023-05-21T03:39:39.476Z,47.13
2023-05-21T03:42:06.527Z,47.13
2023-05-21T03:44:41.874Z,47.02
2023-05-21T03:47:42.164Z,47.05
2023-05-21T03:50:10.881Z,47.03
2023-05-21T03:52:38.041Z,47.04
2023-05-21T03:55:06.324Z,47.05
2023-05-21T03:57:33.682Z,47.13
2023-05-21T04:00:00.825Z,47.14
2023-05-21T04:02:27.974Z,47.18
2023-05-21T04:07:46.652Z,47.16
2023-05-21T04:10:14.125Z,47.23
2023-05-21T04:12:41.068Z,47.26
2023-05-21T04:15:08.619Z,47.30
2023-05-21T04:17:35.851Z,47.29
2023-05-21T04:20:04.082Z,47.32
2023-05-21T04:22:31.338Z,47.26
2023-05-21T04:24:59.925Z,47.20
2023-05-21T04:27:30.461Z,47.14
2023-05-21T04:29:58.202Z,47.22
2023-05-21T04:32:25.150Z,47.19
2023-05-21T04:34:52.134Z,47.20
2023-05-21T04:37:19.181Z,47.30
2023-05-21T04:39:47.162Z,47.33
2023-05-21T04:42:14.454Z,47.17
2023-05-21T04:44:44.730Z,47.27
2023-05-21T04:47:15.112Z,47.33
2023-05-21T04:49:42.430Z,47.30
2023-05-21T04:52:09.321Z,47.21
2023-05-21T04:54:39.293Z,47.16
2023-05-21T04:57:06.522Z,47.17
2023-05-21T04:59:34.778Z,47.21
2023-05-21T05:02:01.795Z,47.14
2023-05-21T05:04:28.741Z,47.10
2023-05-21T05:06:56.200Z,47.07
2023-05-21T05:09:25.425Z,47.01
2023-05-21T05:11:53.093Z,46.88
2023-05-21T05:14:20.344Z,46.83
2023-05-21T05:16:48.573Z,46.87
2023-05-21T05:19:16.234Z,46.90
2023-05-21T05:21:44.444Z,46.81
2023-05-21T05:24:11.722Z,46.80
2023-05-21T05:26:38.784Z,46.69
2023-05-21T05:29:05.695Z,46.68
2023-05-21T05:31:32.615Z,46.63
2023-05-21T05:33:59.862Z,46.34
2023-05-21T05:36:27.498Z,46.11
2023-05-21T05:38:54.405Z,46.10
2023-05-21T05:41:21.516Z,46.07
2023-05-21T05:43:49.322Z,45.88
2023-05-21T05:46:16.772Z,45.73
2023-05-21T05:48:43.769Z,45.50
2023-05-21T05:51:12.075Z,45.54
2023-05-21T05:53:39.127Z,45.44
2023-05-21T05:56:06.693Z,45.18
2023-05-21T05:58:33.654Z,45.07
2023-05-21T06:01:12.161Z,45.00
2023-05-21T06:03:39.775Z,44.86
2023-05-21T06:06:12.452Z,44.78
2023-05-21T06:08:40.807Z,44.53
2023-05-21T06:11:08.095Z,44.38
2023-05-21T06:13:35.306Z,44.31
2023-05-21T06:16:03.757Z,44.27
2023-05-21T06:18:31.052Z,44.12
2023-05-21T06:20:57.924Z,44.05
2023-05-21T06:23:25.067Z,43.90
2023-05-21T06:25:52.485Z,43.58
2023-05-21T06:28:19.605Z,43.25
2023-05-21T06:30:46.754Z,42.96
2023-05-21T06:33:13.660Z,42.63
2023-05-21T06:35:40.839Z,42.24
2023-05-21T06:38:08.422Z,42.18
2023-05-21T06:40:35.583Z,41.96
2023-05-21T06:43:04.962Z,41.58
2023-05-21T06:45:52.321Z,41.24
2023-05-21T06:48:31.615Z,41.12
2023-05-21T06:50:58.673Z,40.79
2023-05-21T06:53:26.169Z,40.54
2023-05-21T06:55:54.072Z,40.11
2023-05-21T06:58:41.534Z,39.36
2023-05-21T07:01:08.777Z,38.96
2023-05-21T07:03:36.568Z,38.15
2023-05-21T07:06:04.048Z,37.19
2023-05-21T07:08:30.977Z,36.21
2023-05-21T07:10:58.234Z,34.51
2023-05-21T07:13:25.895Z,31.72
2023-05-21T07:15:53.384Z,30.05
2023-05-21T07:18:21.030Z,29.94
2023-05-21T07:20:48.078Z,30.10
2023-05-21T07:23:15.959Z,30.16
2023-05-21T07:25:42.886Z,29.97
2023-05-21T07:28:09.967Z,29.78
2023-05-21T07:30:37.456Z,29.86
2023-05-21T07:33:07.515Z,29.70
2023-05-21T07:35:35.361Z,28.98
2023-05-21T07:38:04.170Z,28.51
2023-05-21T07:40:31.098Z,27.87
2023-05-21T07:42:58.191Z,27.27
2023-05-21T07:45:26.598Z,25.71
2023-05-21T07:47:54.227Z,23.97
2023-05-21T07:50:21.434Z,22.53
2023-05-21T07:52:48.353Z,21.64
2023-05-21T07:55:16.052Z,21.04
2023-05-21T07:57:43.452Z,21.02
2023-05-21T08:00:16.500Z,20.16
2023-05-21T08:02:47.503Z,19.73
2023-05-21T08:05:16.504Z,20.38
2023-05-21T08:07:43.903Z,21.32
2023-05-21T08:10:11.064Z,22.41
2023-05-21T08:12:38.013Z,23.27
2023-05-21T08:15:05.566Z,24.18
2023-05-21T08:17:33.522Z,25.14
2023-05-21T08:20:00.658Z,26.12
2023-05-21T08:22:28.101Z,26.90
2023-05-21T08:24:55.052Z,27.68
2023-05-21T08:27:22.236Z,28.31
2023-05-21T08:29:49.270Z,28.79
2023-05-21T08:32:16.234Z,29.33
2023-05-21T08:34:43.638Z,29.73
2023-05-21T08:37:18.724Z,29.98
2023-05-21T08:40:15.440Z,30.72
2023-05-21T08:42:49.478Z,30.96
2023-05-21T08:45:38.309Z,31.09
2023-05-21T08:48:06.425Z,31.27
2023-05-21T08:50:33.711Z,31.37
2023-05-21T08:53:09.923Z,31.21
2023-05-21T08:55:46.871Z,31.44
2023-05-21T08:58:14.757Z,31.68
2023-05-21T09:00:41.977Z,31.99
2023-05-21T09:03:11.608Z,32.09
2023-05-21T09:05:41.150Z,32.14
2023-05-21T09:08:25.043Z,32.13
2023-05-21T09:10:59.250Z,32.29
2023-05-21T09:13:31.942Z,32.23
2023-05-21T09:15:59.602Z,32.20
2023-05-21T09:18:29.792Z,32.28
2023-05-21T09:21:27.528Z,32.32
2023-05-21T09:24:05.971Z,32.35
2023-05-21T09:26:33.168Z,32.45
2023-05-21T09:29:02.765Z,32.40
2023-05-21T09:31:30.492Z,32.38
2023-05-21T09:33:57.552Z,32.19
2023-05-21T09:36:25.875Z,32.22
2023-05-21T09:38:53.859Z,32.24
2023-05-21T09:41:22.451Z,32.19
2023-05-21T09:43:49.711Z,32.30
2023-05-21T09:46:16.792Z,32.24
2023-05-21T09:48:44.127Z,32.37
2023-05-21T09:51:18.640Z,32.34
2023-05-21T09:53:48.865Z,32.30
2023-05-21T09:56:15.771Z,32.38
2023-05-21T09:58:42.971Z,32.26
2023-05-21T10:01:11.362Z,32.34
2023-05-21T10:03:39.972Z,32.55
2023-05-21T10:06:09.087Z,32.75
2023-05-21T10:08:37.532Z,32.63
2023-05-21T10:11:06.530Z,32.70
2023-05-21T10:13:34.595Z,32.67
2023-05-21T10:16:03.013Z,32.50
2023-05-21T10:18:30.040Z,32.48
2023-05-21T10:20:56.961Z,32.50
2023-05-21T10:23:24.180Z,32.55
2023-05-21T10:25:51.223Z,32.57
2023-05-21T10:28:18.413Z,32.38
2023-05-21T10:30:45.833Z,32.27
2023-05-21T10:33:16.773Z,32.35
2023-05-21T10:35:43.745Z,32.16
2023-05-21T10:38:12.204Z,32.19
2023-05-21T10:40:39.228Z,32.16
2023-05-21T10:43:35.804Z,32.09
2023-05-21T10:46:12.139Z,31.93
2023-05-21T10:49:14.029Z,31.88
2023-05-21T10:52:00.540Z,31.72
2023-05-21T10:54:46.532Z,31.43
2023-05-21T10:57:41.773Z,31.06
2023-05-21T11:00:09.650Z,30.97
2023-05-21T11:02:36.793Z,30.80
2023-05-21T11:05:04.962Z,30.78
2023-05-21T11:07:51.819Z,30.79
2023-05-21T11:10:41.090Z,30.77
2023-05-21T11:13:15.270Z,30.68
2023-05-21T11:15:57.775Z,30.48
2023-05-21T11:18:44.827Z,30.36
2023-05-21T11:21:19.154Z,30.10
2023-05-21T11:23:58.869Z,30.10
2023-05-21T11:26:30.726Z,29.92
2023-05-21T11:29:10.968Z,30.02
2023-05-21T11:31:41.049Z,30.29
2023-05-21T11:34:11.293Z,30.17
2023-05-21T11:36:39.289Z,30.02
2023-05-21T11:39:18.158Z,30.10
2023-05-21T11:41:54.682Z,30.09
2023-05-21T11:44:38.078Z,30.28
2023-05-21T11:47:05.264Z,30.29
2023-05-21T11:49:32.828Z,30.25
2023-05-21T11:52:07.157Z,30.07
2023-05-21T11:54:37.037Z,30.09
2023-05-21T11:57:08.198Z,30.00
2023-05-21T11:59:35.845Z,29.43
2023-05-21T12:02:04.009Z,29.29
2023-05-21T12:04:31.958Z,29.48
2023-05-21T12:06:58.980Z,29.85
2023-05-21T12:09:25.962Z,29.69
2023-05-21T12:11:53.527Z,29.92
2023-05-21T12:14:21.031Z,30.07
2023-05-21T12:16:48.054Z,30.13
2023-05-21T12:19:17.840Z,30.22
2023-05-21T12:21:45.617Z,30.33
2023-05-21T12:24:12.604Z,30.27
2023-05-21T12:26:39.726Z,30.27
2023-05-21T12:29:06.772Z,30.10
2023-05-21T12:31:34.111Z,30.16
2023-05-21T12:34:02.527Z,30.06
2023-05-21T12:36:30.806Z,30.09
2023-05-21T12:38:58.068Z,30.26
2023-05-21T12:41:25.114Z,30.33
2023-05-21T12:43:52.109Z,30.35
2023-05-21T12:46:19.141Z,30.17
2023-05-21T12:49:04.493Z,30.07
2023-05-21T12:51:39.417Z,29.91
2023-05-21T12:54:13.260Z,29.63
2023-05-21T12:56:46.532Z,29.46
2023-05-21T12:59:15.627Z,29.52
2023-05-21T13:01:42.737Z,29.71
2023-05-21T13:04:10.286Z,29.74
2023-05-21T13:06:43.991Z,29.76
2023-05-21T13:09:11.080Z,29.90
2023-05-21T13:11:38.065Z,29.87
2023-05-21T13:14:04.976Z,30.12
2023-05-21T13:16:32.086Z,30.16
2023-05-21T13:18:59.161Z,30.29
2023-05-21T13:21:26.274Z,30.46
2023-05-21T13:23:53.272Z,30.63
2023-05-21T13:26:20.395Z,30.63
2023-05-21T13:28:47.373Z,30.70
2023-05-21T13:31:15.854Z,30.77
2023-05-21T13:33:42.848Z,30.81
2023-05-21T13:36:09.839Z,30.89
2023-05-21T13:38:36.797Z,31.03
2023-05-21T13:41:03.958Z,30.95
2023-05-21T13:43:31.983Z,30.94
2023-05-21T13:45:58.920Z,31.05
2023-05-21T13:48:26.015Z,31.10
2023-05-21T13:50:53.070Z,30.97
2023-05-21T13:53:20.029Z,31.18
2023-05-21T13:55:47.178Z,30.99
2023-05-21T13:58:14.231Z,30.81
2023-05-21T14:00:43.231Z,30.71
2023-05-21T14:03:11.558Z,30.67
2023-05-21T14:05:38.709Z,30.66
2023-05-21T14:08:05.925Z,30.53
2023-05-21T14:10:32.805Z,30.25
2023-05-21T14:13:11.247Z,30.33
2023-05-21T14:15:46.231Z,30.48
2023-05-21T14:18:13.310Z,30.34
2023-05-21T14:20:40.353Z,30.43
2023-05-21T14:23:07.461Z,30.40
2023-05-21T14:25:34.622Z,30.19
2023-05-21T14:28:01.902Z,30.16
2023-05-21T14:30:28.957Z,30.15
2023-05-21T14:32:57.896Z,30.25
2023-05-21T14:35:25.116Z,30.36
2023-05-21T14:37:53.326Z,30.37
2023-05-21T14:40:20.860Z,30.50
2023-05-21T14:42:47.743Z,30.52
2023-05-21T14:45:19.125Z,30.55
2023-05-21T14:47:47.920Z,30.44
2023-05-21T14:50:16.026Z,30.56
2023-05-21T14:52:43.346Z,30.53
2023-05-21T14:55:10.756Z,30.53
2023-05-21T14:57:38.004Z,30.49
2023-05-21T15:00:08.382Z,30.46
2023-05-21T15:02:35.531Z,30.60
2023-05-21T15:05:02.521Z,30.63
2023-05-21T15:07:29.540Z,30.53
2023-05-21T15:09:56.387Z,30.53
2023-05-21T15:12:23.398Z,30.39
2023-05-21T15:14:50.509Z,30.33
2023-05-21T15:17:17.505Z,30.37
2023-05-21T15:19:44.568Z,30.20
2023-05-21T15:22:11.463Z,30.03
2023-05-21T15:24:38.365Z,30.13
2023-05-21T15:27:05.527Z,30.16
2023-05-21T15:29:32.708Z,30.25
2023-05-21T15:32:01.231Z,30.23
2023-05-21T15:34:28.137Z,30.18
2023-05-21T15:36:55.373Z,30.07
2023-05-21T15:39:22.424Z,29.92
2023-05-21T15:41:49.384Z,29.79
2023-05-21T15:44:16.444Z,29.90
2023-05-21T15:46:43.743Z,29.86
2023-05-21T15:49:10.991Z,29.95
2023-05-21T15:51:38.719Z,30.28
2023-05-21T15:54:06.438Z,30.97
2023-05-21T15:56:33.440Z,31.52
2023-05-21T15:59:01.575Z,31.94
2023-05-21T16:01:28.599Z,32.22
2023-05-21T16:03:56.009Z,32.44
2023-05-21T16:06:23.098Z,32.51
2023-05-21T16:08:49.963Z,32.71
2023-05-21T16:11:16.926Z,32.96
2023-05-21T16:13:43.900Z,33.04
2023-05-21T16:16:10.986Z,33.13
2023-05-21T16:18:37.890Z,33.29
2023-05-21T16:21:04.912Z,33.59
2023-05-21T16:23:33.356Z,33.65
2023-05-21T16:26:00.496Z,33.77
2023-05-21T16:28:27.495Z,33.92
2023-05-21T16:30:54.413Z,33.94
2023-05-21T16:33:21.312Z,34.09
2023-05-21T16:35:48.344Z,34.23
2023-05-21T16:38:15.400Z,34.23
2023-05-21T16:40:42.479Z,34.25
2023-05-21T16:43:09.411Z,34.51
2023-05-21T16:45:40.720Z,34.62
2023-05-21T16:48:07.837Z,34.74
2023-05-21T16:50:35.104Z,35.09
2023-05-21T16:53:02.801Z,35.15
2023-05-21T16:55:31.359Z,35.31
2023-05-21T16:57:58.619Z,35.66
2023-05-21T17:00:25.547Z,35.84
2023-05-21T17:02:53.080Z,35.87
2023-05-21T17:05:20.571Z,35.95
2023-05-21T17:07:48.098Z,35.77
2023-05-21T17:10:15.046Z,34.98
2023-05-21T17:12:42.160Z,34.65
2023-05-21T17:15:09.194Z,34.46
2023-05-21T17:17:36.381Z,34.35
2023-05-21T17:20:04.454Z,34.22
2023-05-21T17:22:31.843Z,34.21
2023-05-21T17:24:58.918Z,34.14
2023-05-21T17:27:26.015Z,34.25
2023-05-21T17:29:53.155Z,34.32
2023-05-21T17:32:21.236Z,34.45
2023-05-21T17:34:48.143Z,34.63
2023-05-21T17:37:15.342Z,34.72
2023-05-21T17:39:42.409Z,34.67
2023-05-21T17:42:09.375Z,34.56
2023-05-21T17:44:36.538Z,34.55
2023-05-21T17:47:03.544Z,34.55
2023-05-21T17:49:30.561Z,34.69
2023-05-21T17:51:57.925Z,34.66
2023-05-21T17:54:24.919Z,34.72
2023-05-21T17:56:52.108Z,34.70
2023-05-21T17:59:19.129Z,34.75
2023-05-21T18:01:46.117Z,34.79
2023-05-21T18:04:13.429Z,34.83
2023-05-21T18:06:40.602Z,34.82
2023-05-21T18:09:08.162Z,34.82
2023-05-21T18:11:35.314Z,34.89
2023-05-21T18:14:03.990Z,34.91
2023-05-21T18:16:31.944Z,35.10
2023-05-21T18:19:02.128Z,35.39
2023-05-21T18:21:29.031Z,35.60
2023-05-21T18:23:56.034Z,35.95
2023-05-21T18:26:23.160Z,36.21
2023-05-21T18:28:50.215Z,36.41
2023-05-21T18:31:17.428Z,36.63
2023-05-21T18:33:44.401Z,36.81
2023-05-21T18:36:11.746Z,36.86
2023-05-21T18:38:39.457Z,36.96
2023-05-21T18:41:07.844Z,37.12
2023-05-21T18:43:34.893Z,37.25
2023-05-21T18:46:02.069Z,37.39
2023-05-21T18:48:29.037Z,37.63
2023-05-21T18:50:56.815Z,37.70
2023-05-21T18:53:23.763Z,37.77
2023-05-21T18:55:50.660Z,37.88
2023-05-21T18:58:17.598Z,37.94
2023-05-21T19:00:44.684Z,37.94
2023-05-21T19:03:11.655Z,37.90
2023-05-21T19:05:38.921Z,38.02
2023-05-21T19:08:06.359Z,38.09
2023-05-21T19:10:33.407Z,38.16
2023-05-21T19:13:00.460Z,38.19
2023-05-21T19:15:27.619Z,38.16
2023-05-21T19:17:54.903Z,38.39
2023-05-21T19:20:23.640Z,38.39
2023-05-21T19:22:51.106Z,38.47
2023-05-21T19:25:18.287Z,38.62
2023-05-21T19:27:45.360Z,38.62
2023-05-21T19:30:13.005Z,38.69
2023-05-21T19:32:40.078Z,38.76
2023-05-21T19:35:07.951Z,38.76
2023-05-21T19:37:35.105Z,38.90
2023-05-21T19:40:02.155Z,38.95
2023-05-21T19:42:29.129Z,39.03
2023-05-21T19:44:56.335Z,39.12
2023-05-21T19:47:23.412Z,39.25
2023-05-21T19:49:50.567Z,39.27
2023-05-21T19:52:17.519Z,39.41
2023-05-21T19:54:44.888Z,39.51
2023-05-21T19:57:13.580Z,39.60
2023-05-21T19:59:40.628Z,39.62
2023-05-21T20:02:10.205Z,39.75
2023-05-21T20:04:37.080Z,39.92
2023-05-21T20:07:04.034Z,40.05
2023-05-21T20:09:31.089Z,40.14
2023-05-21T20:11:58.080Z,40.27
2023-05-21T20:14:25.095Z,40.47
2023-05-21T20:16:53.762Z,40.63
2023-05-21T20:19:22.935Z,40.63
2023-05-21T20:21:49.894Z,40.74
2023-05-21T20:24:16.854Z,40.79
2023-05-21T20:26:45.175Z,40.90
2023-05-21T20:29:12.082Z,40.90
2023-05-21T20:31:39.123Z,40.95
2023-05-21T20:34:07.941Z,40.94
2023-05-21T20:36:36.081Z,41.04
2023-05-21T20:39:03.250Z,41.10
2023-05-21T20:41:37.722Z,41.21
2023-05-21T20:44:05.699Z,41.24
2023-05-21T20:46:33.216Z,41.29
2023-05-21T20:49:00.626Z,41.44
2023-05-21T20:51:27.668Z,41.45
2023-05-21T20:53:54.589Z,41.43
2023-05-21T20:56:29.761Z,41.53
2023-05-21T20:59:08.581Z,41.61
2023-05-21T21:01:38.077Z,41.62
2023-05-21T21:04:05.498Z,41.74
2023-05-21T21:06:32.558Z,41.69
2023-05-21T21:08:59.562Z,41.76
2023-05-21T21:11:27.347Z,41.78
2023-05-21T21:13:54.238Z,41.76
2023-05-21T21:16:21.205Z,41.80
2023-05-21T21:18:48.144Z,41.89
2023-05-21T21:21:15.147Z,41.90
2023-05-21T21:23:42.506Z,41.90
2023-05-21T21:26:09.501Z,42.00
2023-05-21T21:28:36.451Z,42.05
2023-05-21T21:31:03.305Z,42.04
2023-05-21T21:33:30.346Z,42.11
2023-05-21T21:35:57.251Z,42.16
2023-05-21T21:38:25.574Z,42.16
2023-05-21T21:40:52.463Z,42.33
2023-05-21T21:43:19.451Z,42.43
2023-05-21T21:45:46.467Z,42.65
2023-05-21T21:48:13.659Z,42.77
2023-05-21T21:50:41.147Z,42.92
2023-05-21T21:53:10.044Z,43.03
2023-05-21T21:55:38.196Z,43.14
2023-05-21T21:58:05.214Z,43.35
2023-05-21T22:00:32.062Z,43.49
2023-05-21T22:02:59.022Z,43.52
2023-05-21T22:05:26.114Z,43.62
2023-05-21T22:07:53.064Z,43.70
2023-05-21T22:10:20.112Z,43.82
2023-05-21T22:12:47.039Z,43.98
2023-05-21T22:15:18.755Z,44.01
2023-05-21T22:17:47.438Z,44.01
2023-05-21T22:20:15.154Z,43.93
2023-05-21T22:22:41.989Z,43.87
2023-05-21T22:25:09.188Z,43.95
2023-05-21T22:27:36.669Z,43.93
2023-05-21T22:30:04.830Z,44.05
2023-05-21T22:32:31.890Z,44.09
2023-05-21T22:34:58.787Z,44.25
2023-05-21T22:37:26.438Z,44.35
2023-05-21T22:39:53.295Z,44.49
2023-05-21T22:42:20.308Z,44.70
2023-05-21T22:44:47.189Z,44.75
2023-05-21T22:47:14.414Z,44.75
2023-05-21T22:49:41.334Z,44.74
2023-05-21T22:52:09.571Z,44.67
2023-05-21T22:54:36.706Z,44.77
2023-05-21T22:57:03.859Z,44.87
2023-05-21T22:59:32.097Z,44.97
2023-05-21T23:01:59.263Z,44.96
2023-05-21T23:04:42.639Z,44.93
2023-05-21T23:07:11.109Z,45.03
2023-05-21T23:09:38.064Z,45.10
2023-05-21T23:12:05.270Z,45.27
2023-05-21T23:14:32.262Z,45.30
2023-05-21T23:17:02.520Z,45.40
2023-05-21T23:19:29.842Z,45.46
2023-05-21T23:21:57.224Z,45.61
2023-05-21T23:24:24.181Z,45.66
2023-05-21T23:26:51.214Z,45.72
2023-05-21T23:29:18.355Z,45.82
2023-05-21T23:31:46.990Z,45.86
2023-05-21T23:34:14.177Z,46.02
2023-05-21T23:36:41.078Z,46.20
2023-05-21T23:39:08.003Z,46.33
2023-05-21T23:41:35.081Z,46.28
2023-05-21T23:44:02.200Z,46.37
2023-05-21T23:46:29.186Z,46.44
2023-05-21T23:48:56.089Z,46.44
2023-05-21T23:51:23.007Z,46.55
2023-05-21T23:53:50.051Z,46.50
2023-05-21T23:56:16.968Z,46.59
2023-05-21T23:58:43.823Z,46.59
